NOTICIAS

25/04/2017Advertencia amarilla por vientos fuertes y persistentes ADVERTENCIA A LA POBLACIÓNNivel: amarilloFenómeno: vientos fuertes y persistentesZona: Montevideo, Canelones, Maldonado y RochaA partir de las 00:00 horas del miércoles 26 de abril regirá una advertencia nivel amarillo en los departamentos de Montevideo, Canelones, Maldonado y Rocha por vientos fuertes y persistentes de entre 60 y 80km/h, con ráfagas superiores.Esta advertencia se actualizará a las 18:00 horas del miércoles 26.Continuaremos monitoreando la situación e informaremos ante eventuales cambios.

Productos aeronáuticos

  • SIGMET
  • METAR / SPECI
  • TAF
  • AIREP
  • Aviso de aeródromo
  • Pronárea
  • Carta superficie

Mensajes METAR de la última hora

SULS 260500Z 24021G32KT 5000 RABR BKN007 17/16Q0994
SUMU 260500Z 23020G32KT 5000 RA OVC013 14/14 Q0997 WS RWY 24TEMPO BR2000 BKN005

Mensajes METAR de la última hora - Internacionales


Argentina
SAAR 260500Z 25014KT CAVOK 12/07 Q1010
SABE 260500Z 23006KT 140V290 9999 FEW020 BKN100 13/09 Q1004
SACO 260500Z 29005KT CAVOK 06/04 Q1016
SAEZ 260500Z 25008KT 9999 FEW020 BKN090 12/10 Q1003
SAME 260500Z 00000KT CAVOK 10/06 Q1018
Bolivia
SLLP 260500Z 01004KT 9999 FEW013 03/M07 Q1036
Brasil
SBFI 260542Z 21003KT 9999 SCT017 OVC100 20/20 Q1005 RETS
SBBR 260500Z 01003KT 9999 SCT025 20/18 Q1018
SBFI 260500Z 24004KT 9999 -TSRA SCT017 FEW030CB OVC070 20/20 Q1 006 RERA
SBFL 260500Z 01011KT 9999 BKN014 BKN030 24/20 Q1005
SBGR 260500Z 00000KT CAVOK 19/18 Q1013
SBPA 260500Z 05014KT 5000 RA FEW002 BKN014 OVC100 19/19 Q0999
SBRJ 260500Z 33004KT CAVOK 22/20 Q1010
SBSP 260500Z AUTO 04005KT CAVOK 22/16 Q1013
Colombia
SKBO 260500Z 36005KT 9999 VCSH SCT012 SCT080 13/12 A3032 RMKVCSH/NW
Chile
SCCI 260500Z 26009KT 9999 FEW032 BKN100 03/02 Q1002 NOSIG
SCEL 260500Z VRB02KT CAVOK 09/05 Q1023 NOSIG
Ecuador
SEQM 260531Z 36007KT 4000 -RA FEW003 BKN020 OVC070 13/13 Q1027 RERA NOSIG RMK A3034
SEQM 260500Z 36006KT 3000 +RA SCT003 BKN020 OVC070 14/13 Q1027 BECMG AT0530 -RA RMK A3034
EEUU
KMIA 260553Z 27004KT 10SM CLR 21/15 A2989 RMK AO2 SLP122 T02110150 10256 20206 50003
KDCA 260552Z 35007KT 10SM FEW012 SCT043 OVC100 15/14 A2971 RMK AO2 DZE29 SLP061 P0000 60001 T01500144 10156 20144 58015
KIAD 260552Z 34008KT 5SM -DZ BR OVC006 14/13 A2973 RMK AO2 DZB51 SLP065 P0000 60001 T01390128 10150 20139 56012
KLGA 260551Z 05019KT 3SM BR OVC003 12/11 A2980 RMK AO2 PK WND 05026/0533 SFC VIS 6 SLP089 60036 T01170106 10117 20111 56030
KJFK 260551Z 02006KT 10SM OVC005 13/12 A2980 RMK AO2 RAB14E44 SLP090 P0000 60033 T01280122 10150 20117 56027
KLGA 260548Z 05018KT 3SM BR OVC003 12/11 A2980 RMK AO2 PK WND 05026/0533 SFC VIS 6
KDCA 260541Z 34008KT 10SM SCT012 BKN045 OVC100 15/14 A2972 RMK AO2 DZE29 P0000 T01500144
KDCA 260533Z 34008KT 10SM SCT010 BKN016 OVC044 15/14 A2972 RMK AO2 DZE29 P0000 T01500144
KLGA 260520Z 06018KT 2 1/2SM BR OVC003 12/11 A2980 RMK AO2 SFC VIS 4 T01170106
KDCA 260511Z 34007KT 7SM -DZ BKN010 OVC014 15/15 A2973 RMK AO2 P0000 T01500150
España
LEBL 260530Z 08005KT 7000 FEW005 SCT015 BKN022 16/15 Q1006 NOSIG
LEMD 260530Z 27005KT 230V330 9999 SCT050 13/05 Q1006 NOSIG
LEBL 260500Z 09003KT 6000 FEW009 SCT015 BKN022 16/15 Q1006 NOSIG
LEMD 260500Z 24006KT 9999 FEW050 13/05 Q1006 NOSIG
Francia
LFPO 260530Z 34004KT CAVOK 03/M02 Q1013 NOSIG
LFPO 260500Z VRB03KT 9999 FEW016 02/M03 Q1013 NOSIG
Inglaterra
EGLL 260550Z AUTO 36004KT 310V030 9999 BKN014 04/01 Q1017 BECMG SCT016
EGLL 260520Z AUTO 36006KT 320V030 9999 OVC013 03/01 Q1016 NOSIG
Panamá
MPTO 260500Z 33004KT 9999 FEW018 25/23 Q1012 NOSIG
Paraguay
SGAS 260500Z 23009KT 200V260 9999 BKN027 BKN070 19/16 Q1007
Venezuela
SVMI 260500Z 00000KT 9999 FEW016 28/20 Q1011

* Datos extraidos del Text DataServer de la NOAA (NOAA TEXT DATA SERVER)

Instituto Uruguayo de Meteorología

Dr. Javier Barrios Amorín 1488 - CP 11200
Mesa Central (598) 1895

Montevideo - Uruguay